sensor_id;sensor_type;location;lat;lon;timestamp;temperature;humidity
5172;DHT22;2605;49.770;9.868;2022-09-23T00:01:51;7.00;99.90
5172;DHT22;2605;49.770;9.868;2022-09-23T00:04:17;7.00;99.90
5172;DHT22;2605;49.770;9.868;2022-09-23T00:06:43;6.90;99.90
5172;DHT22;2605;49.770;9.868;2022-09-23T00:09:08;6.90;99.90
5172;DHT22;2605;49.770;9.868;2022-09-23T00:11:37;6.90;99.90
5172;DHT22;2605;49.770;9.868;2022-09-23T00:14:03;6.90;99.90
5172;DHT22;2605;49.770;9.868;2022-09-23T00:16:32;7.00;99.90
5172;DHT22;2605;49.770;9.868;2022-09-23T00:18:59;7.00;99.90
5172;DHT22;2605;49.770;9.868;2022-09-23T00:21:25;6.90;99.90
5172;DHT22;2605;49.770;9.868;2022-09-23T00:23:51;6.80;99.90
5172;DHT22;2605;49.770;9.868;2022-09-23T00:26:18;6.80;99.90
5172;DHT22;2605;49.770;9.868;2022-09-23T00:28:45;6.80;99.90
5172;DHT22;2605;49.770;9.868;2022-09-23T00:31:13;6.80;99.90
5172;DHT22;2605;49.770;9.868;2022-09-23T00:33:39;6.80;99.90
5172;DHT22;2605;49.770;9.868;2022-09-23T00:36:08;6.80;99.90
5172;DHT22;2605;49.770;9.868;2022-09-23T00:38:35;7.00;99.90
5172;DHT22;2605;49.770;9.868;2022-09-23T00:41:01;6.90;99.90
5172;DHT22;2605;49.770;9.868;2022-09-23T00:43:38;6.80;99.90
5172;DHT22;2605;49.770;9.868;2022-09-23T00:46:06;6.80;99.90
5172;DHT22;2605;49.770;9.868;2022-09-23T00:48:35;6.80;99.90
5172;DHT22;2605;49.770;9.868;2022-09-23T00:51:01;6.80;99.90
5172;DHT22;2605;49.770;9.868;2022-09-23T00:53:27;6.70;99.90
5172;DHT22;2605;49.770;9.868;2022-09-23T00:55:56;6.70;99.90
5172;DHT22;2605;49.770;9.868;2022-09-23T00:58:28;6.60;99.90
5172;DHT22;2605;49.770;9.868;2022-09-23T01:00:57;6.70;99.90
5172;DHT22;2605;49.770;9.868;2022-09-23T01:03:23;6.60;99.90
5172;DHT22;2605;49.770;9.868;2022-09-23T01:05:49;6.60;99.90
5172;DHT22;2605;49.770;9.868;2022-09-23T01:08:15;6.50;99.90
5172;DHT22;2605;49.770;9.868;2022-09-23T01:14:00;6.50;99.90
5172;DHT22;2605;49.770;9.868;2022-09-23T01:16:57;6.50;99.90
5172;DHT22;2605;49.770;9.868;2022-09-23T01:22:26;6.40;99.90
5172;DHT22;2605;49.770;9.868;2022-09-23T01:24:57;6.40;99.90
5172;DHT22;2605;49.770;9.868;2022-09-23T01:39:15;6.30;99.90
5172;DHT22;2605;49.770;9.868;2022-09-23T01:44:27;6.20;99.90
5172;DHT22;2605;49.770;9.868;2022-09-23T01:47:00;6.20;99.90
5172;DHT22;2605;49.770;9.868;2022-09-23T01:49:36;6.20;99.90
5172;DHT22;2605;49.770;9.868;2022-09-23T01:52:18;6.10;99.90
5172;DHT22;2605;49.770;9.868;2022-09-23T01:54:56;6.10;99.90
5172;DHT22;2605;49.770;9.868;2022-09-23T01:57:35;6.10;99.90
5172;DHT22;2605;49.770;9.868;2022-09-23T02:00:14;6.10;99.90
5172;DHT22;2605;49.770;9.868;2022-09-23T02:02:46;6.10;99.90
5172;DHT22;2605;49.770;9.868;2022-09-23T02:07:54;6.00;99.90
5172;DHT22;2605;49.770;9.868;2022-09-23T02:10:37;6.00;99.90
5172;DHT22;2605;49.770;9.868;2022-09-23T02:13:12;6.00;99.90
5172;DHT22;2605;49.770;9.868;2022-09-23T02:15:43;6.00;99.90
5172;DHT22;2605;49.770;9.868;2022-09-23T02:18:15;5.90;99.90
5172;DHT22;2605;49.770;9.868;2022-09-23T02:20:42;5.90;99.90
5172;DHT22;2605;49.770;9.868;2022-09-23T02:23:13;5.80;99.90
5172;DHT22;2605;49.770;9.868;2022-09-23T02:26:07;5.80;99.90
5172;DHT22;2605;49.770;9.868;2022-09-23T02:28:48;5.80;99.90
5172;DHT22;2605;49.770;9.868;2022-09-23T02:39:37;5.70;99.90
5172;DHT22;2605;49.770;9.868;2022-09-23T02:42:08;5.70;99.90
5172;DHT22;2605;49.770;9.868;2022-09-23T02:44:35;5.70;99.90
5172;DHT22;2605;49.770;9.868;2022-09-23T02:47:01;5.70;99.90
5172;DHT22;2605;49.770;9.868;2022-09-23T02:49:29;5.70;99.90
5172;DHT22;2605;49.770;9.868;2022-09-23T02:51:56;5.70;99.90
5172;DHT22;2605;49.770;9.868;2022-09-23T02:54:26;5.70;99.90
5172;DHT22;2605;49.770;9.868;2022-09-23T02:56:53;5.60;99.90
5172;DHT22;2605;49.770;9.868;2022-09-23T02:59:20;5.60;99.90
5172;DHT22;2605;49.770;9.868;2022-09-23T03:04:39;5.50;99.90
5172;DHT22;2605;49.770;9.868;2022-09-23T03:07:20;5.50;99.90
5172;DHT22;2605;49.770;9.868;2022-09-23T03:09:54;5.50;99.90
5172;DHT22;2605;49.770;9.868;2022-09-23T03:20:51;5.40;99.90
5172;DHT22;2605;49.770;9.868;2022-09-23T03:23:26;5.30;99.90
5172;DHT22;2605;49.770;9.868;2022-09-23T03:25:57;5.30;99.90
5172;DHT22;2605;49.770;9.868;2022-09-23T03:28:26;5.20;99.90
5172;DHT22;2605;49.770;9.868;2022-09-23T03:30:53;5.20;99.90
5172;DHT22;2605;49.770;9.868;2022-09-23T03:33:21;5.20;99.90
5172;DHT22;2605;49.770;9.868;2022-09-23T03:35:52;5.20;99.90
5172;DHT22;2605;49.770;9.868;2022-09-23T03:38:40;5.20;99.90
5172;DHT22;2605;49.770;9.868;2022-09-23T03:41:12;5.20;99.90
5172;DHT22;2605;49.770;9.868;2022-09-23T03:43:42;5.20;99.90
5172;DHT22;2605;49.770;9.868;2022-09-23T03:46:08;5.20;99.90
5172;DHT22;2605;49.770;9.868;2022-09-23T03:48:36;5.20;99.90
5172;DHT22;2605;49.770;9.868;2022-09-23T03:51:15;5.20;99.90
5172;DHT22;2605;49.770;9.868;2022-09-23T03:53:43;5.10;99.90
5172;DHT22;2605;49.770;9.868;2022-09-23T03:56:08;5.10;99.90
5172;DHT22;2605;49.770;9.868;2022-09-23T03:58:36;5.00;99.90
5172;DHT22;2605;49.770;9.868;2022-09-23T04:01:02;5.00;99.90
5172;DHT22;2605;49.770;9.868;2022-09-23T04:03:28;5.00;99.90
5172;DHT22;2605;49.770;9.868;2022-09-23T04:05:54;5.00;99.90
5172;DHT22;2605;49.770;9.868;2022-09-23T04:08:19;5.00;99.90
5172;DHT22;2605;49.770;9.868;2022-09-23T04:10:45;5.00;99.90
5172;DHT22;2605;49.770;9.868;2022-09-23T04:13:10;5.00;99.90
5172;DHT22;2605;49.770;9.868;2022-09-23T04:15:36;5.10;99.90
5172;DHT22;2605;49.770;9.868;2022-09-23T04:18:02;5.00;99.90
5172;DHT22;2605;49.770;9.868;2022-09-23T04:20:27;5.00;99.90
5172;DHT22;2605;49.770;9.868;2022-09-23T04:22:55;5.00;99.90
5172;DHT22;2605;49.770;9.868;2022-09-23T04:25:20;5.00;99.90
5172;DHT22;2605;49.770;9.868;2022-09-23T04:27:46;5.00;99.90
5172;DHT22;2605;49.770;9.868;2022-09-23T04:30:12;5.00;99.90
5172;DHT22;2605;49.770;9.868;2022-09-23T04:32:37;5.00;99.90
5172;DHT22;2605;49.770;9.868;2022-09-23T04:35:04;5.00;99.90
5172;DHT22;2605;49.770;9.868;2022-09-23T04:37:29;5.10;99.90
5172;DHT22;2605;49.770;9.868;2022-09-23T04:39:55;5.00;99.90
5172;DHT22;2605;49.770;9.868;2022-09-23T04:42:21;5.00;99.90
5172;DHT22;2605;49.770;9.868;2022-09-23T04:44:46;5.00;99.90
5172;DHT22;2605;49.770;9.868;2022-09-23T04:47:12;5.00;99.90
5172;DHT22;2605;49.770;9.868;2022-09-23T04:49:37;5.00;99.90
5172;DHT22;2605;49.770;9.868;2022-09-23T04:52:03;5.00;99.90
5172;DHT22;2605;49.770;9.868;2022-09-23T04:54:30;5.00;99.90
5172;DHT22;2605;49.770;9.868;2022-09-23T04:56:55;4.90;99.90
5172;DHT22;2605;49.770;9.868;2022-09-23T04:59:21;4.90;99.90
5172;DHT22;2605;49.770;9.868;2022-09-23T05:01:46;4.90;99.90
5172;DHT22;2605;49.770;9.868;2022-09-23T05:04:12;4.90;99.90
5172;DHT22;2605;49.770;9.868;2022-09-23T05:06:38;4.90;99.90
5172;DHT22;2605;49.770;9.868;2022-09-23T05:09:05;4.80;99.90
5172;DHT22;2605;49.770;9.868;2022-09-23T05:11:32;4.80;99.90
5172;DHT22;2605;49.770;9.868;2022-09-23T05:13:58;4.80;99.90
5172;DHT22;2605;49.770;9.868;2022-09-23T05:16:25;4.80;99.90
5172;DHT22;2605;49.770;9.868;2022-09-23T05:18:52;4.80;99.90
5172;DHT22;2605;49.770;9.868;2022-09-23T05:21:22;4.90;99.90
5172;DHT22;2605;49.770;9.868;2022-09-23T05:23:52;4.90;99.90
5172;DHT22;2605;49.770;9.868;2022-09-23T05:26:23;4.90;99.90
5172;DHT22;2605;49.770;9.868;2022-09-23T05:28:53;5.00;99.90
5172;DHT22;2605;49.770;9.868;2022-09-23T05:31:21;5.00;99.90
5172;DHT22;2605;49.770;9.868;2022-09-23T05:33:49;5.10;99.90
5172;DHT22;2605;49.770;9.868;2022-09-23T05:36:18;5.10;99.90
5172;DHT22;2605;49.770;9.868;2022-09-23T05:38:45;5.30;99.90
5172;DHT22;2605;49.770;9.868;2022-09-23T05:41:12;5.30;99.90
5172;DHT22;2605;49.770;9.868;2022-09-23T05:43:38;5.40;99.90
5172;DHT22;2605;49.770;9.868;2022-09-23T05:46:15;5.40;99.90
5172;DHT22;2605;49.770;9.868;2022-09-23T05:48:42;5.60;99.90
5172;DHT22;2605;49.770;9.868;2022-09-23T05:51:13;5.70;99.90
5172;DHT22;2605;49.770;9.868;2022-09-23T05:53:39;5.90;99.90
5172;DHT22;2605;49.770;9.868;2022-09-23T05:56:09;6.00;99.90
5172;DHT22;2605;49.770;9.868;2022-09-23T05:58:34;6.00;99.90
5172;DHT22;2605;49.770;9.868;2022-09-23T06:01:00;6.10;99.90
5172;DHT22;2605;49.770;9.868;2022-09-23T06:03:26;6.20;99.90
5172;DHT22;2605;49.770;9.868;2022-09-23T06:05:52;6.40;99.90
5172;DHT22;2605;49.770;9.868;2022-09-23T06:08:18;6.50;99.90
5172;DHT22;2605;49.770;9.868;2022-09-23T06:10:44;6.60;99.90
5172;DHT22;2605;49.770;9.868;2022-09-23T06:13:11;6.80;99.90
5172;DHT22;2605;49.770;9.868;2022-09-23T06:15:37;6.80;99.90
5172;DHT22;2605;49.770;9.868;2022-09-23T06:18:03;7.00;99.90
5172;DHT22;2605;49.770;9.868;2022-09-23T06:20:29;7.10;99.90
5172;DHT22;2605;49.770;9.868;2022-09-23T06:23:04;7.20;99.90
5172;DHT22;2605;49.770;9.868;2022-09-23T06:25:32;7.20;99.90
5172;DHT22;2605;49.770;9.868;2022-09-23T06:27:58;7.40;99.90
5172;DHT22;2605;49.770;9.868;2022-09-23T06:30:24;7.50;99.90
5172;DHT22;2605;49.770;9.868;2022-09-23T06:32:51;7.60;99.90
5172;DHT22;2605;49.770;9.868;2022-09-23T06:35:22;7.70;99.90
5172;DHT22;2605;49.770;9.868;2022-09-23T06:37:48;7.80;99.90
5172;DHT22;2605;49.770;9.868;2022-09-23T06:40:14;7.90;99.90
5172;DHT22;2605;49.770;9.868;2022-09-23T06:42:40;8.00;99.90
5172;DHT22;2605;49.770;9.868;2022-09-23T06:45:07;8.10;99.90
5172;DHT22;2605;49.770;9.868;2022-09-23T06:47:36;8.10;99.90
5172;DHT22;2605;49.770;9.868;2022-09-23T06:50:02;8.10;99.90
5172;DHT22;2605;49.770;9.868;2022-09-23T06:52:27;8.10;99.90
5172;DHT22;2605;49.770;9.868;2022-09-23T06:54:53;8.20;99.90
5172;DHT22;2605;49.770;9.868;2022-09-23T06:57:18;8.30;99.90
5172;DHT22;2605;49.770;9.868;2022-09-23T06:59:44;8.40;99.90
5172;DHT22;2605;49.770;9.868;2022-09-23T07:02:10;8.30;99.90
5172;DHT22;2605;49.770;9.868;2022-09-23T07:04:36;8.40;99.90
5172;DHT22;2605;49.770;9.868;2022-09-23T07:07:01;8.50;99.90
5172;DHT22;2605;49.770;9.868;2022-09-23T07:09:27;8.60;99.90
5172;DHT22;2605;49.770;9.868;2022-09-23T07:11:53;8.80;99.90
5172;DHT22;2605;49.770;9.868;2022-09-23T07:14:18;8.90;99.90
5172;DHT22;2605;49.770;9.868;2022-09-23T07:16:47;9.00;99.90
5172;DHT22;2605;49.770;9.868;2022-09-23T07:19:12;9.20;99.90
5172;DHT22;2605;49.770;9.868;2022-09-23T07:21:37;9.30;99.90
5172;DHT22;2605;49.770;9.868;2022-09-23T07:24:03;9.40;99.90
5172;DHT22;2605;49.770;9.868;2022-09-23T07:26:29;9.60;99.90
5172;DHT22;2605;49.770;9.868;2022-09-23T07:29:00;9.80;99.90
5172;DHT22;2605;49.770;9.868;2022-09-23T07:31:35;10.00;99.90
5172;DHT22;2605;49.770;9.868;2022-09-23T07:34:01;10.20;99.90
5172;DHT22;2605;49.770;9.868;2022-09-23T07:36:27;10.40;99.90
5172;DHT22;2605;49.770;9.868;2022-09-23T07:38:54;10.70;99.90
5172;DHT22;2605;49.770;9.868;2022-09-23T07:41:25;10.90;99.90
5172;DHT22;2605;49.770;9.868;2022-09-23T07:43:54;11.10;99.90
5172;DHT22;2605;49.770;9.868;2022-09-23T07:46:24;11.30;99.90
5172;DHT22;2605;49.770;9.868;2022-09-23T07:48:50;11.60;99.90
5172;DHT22;2605;49.770;9.868;2022-09-23T07:51:20;11.80;99.90
5172;DHT22;2605;49.770;9.868;2022-09-23T07:53:47;12.00;99.90
5172;DHT22;2605;49.770;9.868;2022-09-23T07:56:14;12.10;99.90
5172;DHT22;2605;49.770;9.868;2022-09-23T07:58:39;12.30;99.90
5172;DHT22;2605;49.770;9.868;2022-09-23T08:01:08;12.50;99.90
5172;DHT22;2605;49.770;9.868;2022-09-23T08:03:34;12.70;99.90
5172;DHT22;2605;49.770;9.868;2022-09-23T08:06:05;12.90;99.90
5172;DHT22;2605;49.770;9.868;2022-09-23T08:08:31;13.00;99.90
5172;DHT22;2605;49.770;9.868;2022-09-23T08:11:04;13.20;99.90
5172;DHT22;2605;49.770;9.868;2022-09-23T08:13:31;13.40;99.90
5172;DHT22;2605;49.770;9.868;2022-09-23T08:15:57;13.40;99.90
5172;DHT22;2605;49.770;9.868;2022-09-23T08:18:23;13.50;99.90
5172;DHT22;2605;49.770;9.868;2022-09-23T08:20:48;13.60;99.90
5172;DHT22;2605;49.770;9.868;2022-09-23T08:23:15;13.60;99.90
5172;DHT22;2605;49.770;9.868;2022-09-23T08:25:41;13.70;99.90
5172;DHT22;2605;49.770;9.868;2022-09-23T08:28:07;13.70;99.90
5172;DHT22;2605;49.770;9.868;2022-09-23T08:30:33;13.80;99.90
5172;DHT22;2605;49.770;9.868;2022-09-23T08:32:59;13.90;99.90
5172;DHT22;2605;49.770;9.868;2022-09-23T08:35:25;13.90;99.90
5172;DHT22;2605;49.770;9.868;2022-09-23T08:37:50;13.90;99.90
5172;DHT22;2605;49.770;9.868;2022-09-23T08:40:16;14.00;99.90
5172;DHT22;2605;49.770;9.868;2022-09-23T08:42:43;14.00;99.90
5172;DHT22;2605;49.770;9.868;2022-09-23T08:45:18;14.00;99.90
5172;DHT22;2605;49.770;9.868;2022-09-23T08:47:57;14.10;99.90
5172;DHT22;2605;49.770;9.868;2022-09-23T08:50:35;14.10;99.90
5172;DHT22;2605;49.770;9.868;2022-09-23T08:53:07;14.00;99.90
5172;DHT22;2605;49.770;9.868;2022-09-23T08:55:42;14.10;99.90
5172;DHT22;2605;49.770;9.868;2022-09-23T08:58:31;14.30;99.90
5172;DHT22;2605;49.770;9.868;2022-09-23T09:01:12;14.40;99.90
5172;DHT22;2605;49.770;9.868;2022-09-23T09:06:17;14.50;99.90
5172;DHT22;2605;49.770;9.868;2022-09-23T09:08:49;14.60;99.90
5172;DHT22;2605;49.770;9.868;2022-09-23T09:11:16;14.60;99.90
5172;DHT22;2605;49.770;9.868;2022-09-23T09:14:02;14.70;99.90
5172;DHT22;2605;49.770;9.868;2022-09-23T09:19:20;14.80;99.90
5172;DHT22;2605;49.770;9.868;2022-09-23T09:21:49;14.80;99.90
5172;DHT22;2605;49.770;9.868;2022-09-23T09:24:25;15.00;99.90
5172;DHT22;2605;49.770;9.868;2022-09-23T09:26:52;15.10;99.90
5172;DHT22;2605;49.770;9.868;2022-09-23T09:29:27;15.40;99.90
5172;DHT22;2605;49.770;9.868;2022-09-23T09:31:56;15.40;99.90
5172;DHT22;2605;49.770;9.868;2022-09-23T09:39:44;16.00;99.90
5172;DHT22;2605;49.770;9.868;2022-09-23T09:42:17;16.20;99.90
5172;DHT22;2605;49.770;9.868;2022-09-23T09:44:50;16.40;99.90
5172;DHT22;2605;49.770;9.868;2022-09-23T09:50:06;16.60;99.90
5172;DHT22;2605;49.770;9.868;2022-09-23T09:52:32;16.70;99.90
5172;DHT22;2605;49.770;9.868;2022-09-23T09:57:59;16.80;99.90
5172;DHT22;2605;49.770;9.868;2022-09-23T10:00:33;16.80;99.90
5172;DHT22;2605;49.770;9.868;2022-09-23T10:03:36;16.80;99.90
5172;DHT22;2605;49.770;9.868;2022-09-23T10:06:20;17.00;99.90
5172;DHT22;2605;49.770;9.868;2022-09-23T10:08:49;17.00;99.90
5172;DHT22;2605;49.770;9.868;2022-09-23T10:11:29;16.90;99.90
5172;DHT22;2605;49.770;9.868;2022-09-23T10:14:16;16.80;99.90
5172;DHT22;2605;49.770;9.868;2022-09-23T10:16:45;16.80;99.90
5172;DHT22;2605;49.770;9.868;2022-09-23T10:19:25;16.80;99.90
5172;DHT22;2605;49.770;9.868;2022-09-23T10:21:53;16.80;99.90
5172;DHT22;2605;49.770;9.868;2022-09-23T10:24:26;16.80;99.90
5172;DHT22;2605;49.770;9.868;2022-09-23T10:27:15;16.80;99.90
5172;DHT22;2605;49.770;9.868;2022-09-23T10:32:27;16.60;99.90
5172;DHT22;2605;49.770;9.868;2022-09-23T10:37:37;16.80;99.90
5172;DHT22;2605;49.770;9.868;2022-09-23T10:40:20;17.00;99.90
5172;DHT22;2605;49.770;9.868;2022-09-23T10:46:36;17.20;99.90
5172;DHT22;2605;49.770;9.868;2022-09-23T10:49:47;17.30;99.90
5172;DHT22;2605;49.770;9.868;2022-09-23T10:52:25;17.40;99.90
5172;DHT22;2605;49.770;9.868;2022-09-23T10:57:50;17.50;99.90
5172;DHT22;2605;49.770;9.868;2022-09-23T11:14:30;18.30;99.90
5172;DHT22;2605;49.770;9.868;2022-09-23T11:20:29;18.70;99.90
5172;DHT22;2605;49.770;9.868;2022-09-23T11:23:13;19.00;99.90
5172;DHT22;2605;49.770;9.868;2022-09-23T11:26:12;19.30;99.90
5172;DHT22;2605;49.770;9.868;2022-09-23T11:29:06;19.50;99.90
5172;DHT22;2605;49.770;9.868;2022-09-23T11:37:09;19.50;99.90
5172;DHT22;2605;49.770;9.868;2022-09-23T11:39:56;19.60;99.90
5172;DHT22;2605;49.770;9.868;2022-09-23T11:42:28;19.80;99.90
5172;DHT22;2605;49.770;9.868;2022-09-23T11:45:05;20.00;99.90
5172;DHT22;2605;49.770;9.868;2022-09-23T11:47:39;20.00;99.90
5172;DHT22;2605;49.770;9.868;2022-09-23T11:50:19;20.00;99.90
5172;DHT22;2605;49.770;9.868;2022-09-23T11:52:59;20.00;99.90
5172;DHT22;2605;49.770;9.868;2022-09-23T11:55:32;20.10;99.90
5172;DHT22;2605;49.770;9.868;2022-09-23T11:58:21;20.00;99.90
5172;DHT22;2605;49.770;9.868;2022-09-23T12:08:29;19.90;99.90
5172;DHT22;2605;49.770;9.868;2022-09-23T12:13:53;19.70;99.90
5172;DHT22;2605;49.770;9.868;2022-09-23T12:22:46;20.20;99.90
5172;DHT22;2605;49.770;9.868;2022-09-23T12:28:09;20.60;99.90
5172;DHT22;2605;49.770;9.868;2022-09-23T12:30:36;20.50;99.90
5172;DHT22;2605;49.770;9.868;2022-09-23T12:35:49;20.70;99.90
5172;DHT22;2605;49.770;9.868;2022-09-23T12:40:46;20.90;99.90
5172;DHT22;2605;49.770;9.868;2022-09-23T12:43:32;21.00;99.90
5172;DHT22;2605;49.770;9.868;2022-09-23T12:46:19;21.10;99.90
5172;DHT22;2605;49.770;9.868;2022-09-23T12:48:57;21.20;99.90
5172;DHT22;2605;49.770;9.868;2022-09-23T12:51:29;20.80;99.90
5172;DHT22;2605;49.770;9.868;2022-09-23T12:53:56;21.00;99.90
5172;DHT22;2605;49.770;9.868;2022-09-23T12:56:55;21.10;99.90
5172;DHT22;2605;49.770;9.868;2022-09-23T13:01:41;21.50;99.90
5172;DHT22;2605;49.770;9.868;2022-09-23T13:07:16;21.50;99.90
5172;DHT22;2605;49.770;9.868;2022-09-23T13:09:47;21.60;99.90
5172;DHT22;2605;49.770;9.868;2022-09-23T13:12:19;21.60;99.90
5172;DHT22;2605;49.770;9.868;2022-09-23T13:14:49;21.80;99.90
5172;DHT22;2605;49.770;9.868;2022-09-23T13:17:31;21.90;99.90
5172;DHT22;2605;49.770;9.868;2022-09-23T13:20:31;22.20;99.90
5172;DHT22;2605;49.770;9.868;2022-09-23T13:23:03;22.50;99.90
5172;DHT22;2605;49.770;9.868;2022-09-23T13:25:32;22.70;99.90
5172;DHT22;2605;49.770;9.868;2022-09-23T13:28:01;22.90;99.90
5172;DHT22;2605;49.770;9.868;2022-09-23T13:30:27;22.40;99.90
5172;DHT22;2605;49.770;9.868;2022-09-23T13:33:07;22.00;99.90
5172;DHT22;2605;49.770;9.868;2022-09-23T13:35:37;21.60;99.90
5172;DHT22;2605;49.770;9.868;2022-09-23T13:38:11;22.00;99.90
5172;DHT22;2605;49.770;9.868;2022-09-23T13:40:43;22.40;99.90
5172;DHT22;2605;49.770;9.868;2022-09-23T13:43:21;22.80;99.90
5172;DHT22;2605;49.770;9.868;2022-09-23T13:45:47;23.20;99.90
5172;DHT22;2605;49.770;9.868;2022-09-23T13:48:14;23.60;99.90
5172;DHT22;2605;49.770;9.868;2022-09-23T13:50:47;23.80;98.80
5172;DHT22;2605;49.770;9.868;2022-09-23T13:53:21;23.70;99.90
5172;DHT22;2605;49.770;9.868;2022-09-23T13:56:05;23.80;98.40
5172;DHT22;2605;49.770;9.868;2022-09-23T13:58:32;23.70;99.40
5172;DHT22;2605;49.770;9.868;2022-09-23T14:00:58;23.20;97.60
5172;DHT22;2605;49.770;9.868;2022-09-23T14:03:35;23.20;98.90
5172;DHT22;2605;49.770;9.868;2022-09-23T14:06:04;23.30;98.10
5172;DHT22;2605;49.770;9.868;2022-09-23T14:08:31;25.00;93.80
5172;DHT22;2605;49.770;9.868;2022-09-23T14:10:57;26.30;82.60
5172;DHT22;2605;49.770;9.868;2022-09-23T14:13:26;27.80;72.80
5172;DHT22;2605;49.770;9.868;2022-09-23T14:15:54;28.20;64.90
5172;DHT22;2605;49.770;9.868;2022-09-23T14:18:39;27.70;63.40
5172;DHT22;2605;49.770;9.868;2022-09-23T14:21:05;27.90;65.20
5172;DHT22;2605;49.770;9.868;2022-09-23T14:23:31;28.90;60.40
5172;DHT22;2605;49.770;9.868;2022-09-23T14:25:57;29.20;56.30
5172;DHT22;2605;49.770;9.868;2022-09-23T14:28:25;29.20;54.40
5172;DHT22;2605;49.770;9.868;2022-09-23T14:30:53;29.30;53.50
5172;DHT22;2605;49.770;9.868;2022-09-23T14:33:30;30.30;52.00
5172;DHT22;2605;49.770;9.868;2022-09-23T14:36:02;30.10;49.20
5172;DHT22;2605;49.770;9.868;2022-09-23T14:38:30;30.10;47.90
5172;DHT22;2605;49.770;9.868;2022-09-23T14:41:23;30.50;46.90
5172;DHT22;2605;49.770;9.868;2022-09-23T14:43:59;31.00;47.40
5172;DHT22;2605;49.770;9.868;2022-09-23T14:46:28;30.90;47.60
5172;DHT22;2605;49.770;9.868;2022-09-23T14:49:04;30.70;45.60
5172;DHT22;2605;49.770;9.868;2022-09-23T14:54:31;29.90;47.30
5172;DHT22;2605;49.770;9.868;2022-09-23T14:56:58;30.00;45.00
5172;DHT22;2605;49.770;9.868;2022-09-23T14:59:32;29.90;45.90
5172;DHT22;2605;49.770;9.868;2022-09-23T15:01:58;29.50;47.20
5172;DHT22;2605;49.770;9.868;2022-09-23T15:06:58;28.60;51.90
5172;DHT22;2605;49.770;9.868;2022-09-23T15:09:27;28.10;51.00
5172;DHT22;2605;49.770;9.868;2022-09-23T15:12:15;26.80;56.50
5172;DHT22;2605;49.770;9.868;2022-09-23T15:14:48;26.10;60.40
5172;DHT22;2605;49.770;9.868;2022-09-23T15:17:29;25.60;66.80
5172;DHT22;2605;49.770;9.868;2022-09-23T15:19:59;27.50;61.40
5172;DHT22;2605;49.770;9.868;2022-09-23T15:22:26;29.10;54.50
5172;DHT22;2605;49.770;9.868;2022-09-23T15:24:53;30.40;49.50
5172;DHT22;2605;49.770;9.868;2022-09-23T15:27:33;30.90;46.90
5172;DHT22;2605;49.770;9.868;2022-09-23T15:30:19;32.10;43.60
5172;DHT22;2605;49.770;9.868;2022-09-23T15:32:46;32.40;42.00
5172;DHT22;2605;49.770;9.868;2022-09-23T15:35:16;32.50;41.00
5172;DHT22;2605;49.770;9.868;2022-09-23T15:37:44;32.00;39.60
5172;DHT22;2605;49.770;9.868;2022-09-23T15:40:23;31.50;39.60
5172;DHT22;2605;49.770;9.868;2022-09-23T15:42:55;30.70;41.00
5172;DHT22;2605;49.770;9.868;2022-09-23T15:45:28;30.00;42.70
5172;DHT22;2605;49.770;9.868;2022-09-23T15:47:58;29.30;45.20
5172;DHT22;2605;49.770;9.868;2022-09-23T15:50:26;28.50;47.00
5172;DHT22;2605;49.770;9.868;2022-09-23T15:52:52;28.30;49.60
5172;DHT22;2605;49.770;9.868;2022-09-23T15:55:19;28.10;49.70
5172;DHT22;2605;49.770;9.868;2022-09-23T15:57:48;28.20;51.00
5172;DHT22;2605;49.770;9.868;2022-09-23T16:00:15;27.60;54.50
5172;DHT22;2605;49.770;9.868;2022-09-23T16:02:43;26.70;59.10
5172;DHT22;2605;49.770;9.868;2022-09-23T16:05:30;26.10;66.20
5172;DHT22;2605;49.770;9.868;2022-09-23T16:08:01;25.40;72.90
5172;DHT22;2605;49.770;9.868;2022-09-23T16:10:26;24.80;81.10
5172;DHT22;2605;49.770;9.868;2022-09-23T16:12:53;24.30;98.40
5172;DHT22;2605;49.770;9.868;2022-09-23T16:15:22;23.80;99.90
5172;DHT22;2605;49.770;9.868;2022-09-23T16:17:48;23.40;99.90
5172;DHT22;2605;49.770;9.868;2022-09-23T16:20:14;22.90;99.90
5172;DHT22;2605;49.770;9.868;2022-09-23T16:22:43;22.50;99.90
5172;DHT22;2605;49.770;9.868;2022-09-23T16:25:11;21.80;99.90
5172;DHT22;2605;49.770;9.868;2022-09-23T16:27:37;21.30;99.90
5172;DHT22;2605;49.770;9.868;2022-09-23T16:30:06;20.90;99.90
5172;DHT22;2605;49.770;9.868;2022-09-23T16:32:31;20.50;99.90
5172;DHT22;2605;49.770;9.868;2022-09-23T16:34:57;20.20;99.90
5172;DHT22;2605;49.770;9.868;2022-09-23T16:37:23;19.90;99.90
5172;DHT22;2605;49.770;9.868;2022-09-23T16:39:49;19.70;99.90
5172;DHT22;2605;49.770;9.868;2022-09-23T16:42:15;19.40;99.90
5172;DHT22;2605;49.770;9.868;2022-09-23T16:44:40;19.10;99.90
5172;DHT22;2605;49.770;9.868;2022-09-23T16:47:06;18.80;99.90
5172;DHT22;2605;49.770;9.868;2022-09-23T16:49:33;18.40;99.90
5172;DHT22;2605;49.770;9.868;2022-09-23T16:51:58;18.20;99.90
5172;DHT22;2605;49.770;9.868;2022-09-23T16:54:26;18.00;99.90
5172;DHT22;2605;49.770;9.868;2022-09-23T16:56:51;17.70;99.90
5172;DHT22;2605;49.770;9.868;2022-09-23T16:59:19;17.40;99.90
5172;DHT22;2605;49.770;9.868;2022-09-23T17:01:46;17.20;99.90
5172;DHT22;2605;49.770;9.868;2022-09-23T17:04:47;17.00;99.90
5172;DHT22;2605;49.770;9.868;2022-09-23T17:07:12;16.60;99.90
5172;DHT22;2605;49.770;9.868;2022-09-23T17:09:37;16.40;99.90
5172;DHT22;2605;49.770;9.868;2022-09-23T17:12:22;16.30;99.90
5172;DHT22;2605;49.770;9.868;2022-09-23T17:14:50;16.20;99.90
5172;DHT22;2605;49.770;9.868;2022-09-23T17:17:16;15.90;99.90
5172;DHT22;2605;49.770;9.868;2022-09-23T17:19:42;15.80;99.90
5172;DHT22;2605;49.770;9.868;2022-09-23T17:22:07;15.70;99.90
5172;DHT22;2605;49.770;9.868;2022-09-23T17:24:34;15.60;99.90
5172;DHT22;2605;49.770;9.868;2022-09-23T17:26:59;15.50;99.90
5172;DHT22;2605;49.770;9.868;2022-09-23T17:29:25;15.30;99.90
5172;DHT22;2605;49.770;9.868;2022-09-23T17:31:51;15.20;99.90
5172;DHT22;2605;49.770;9.868;2022-09-23T17:34:17;15.10;99.90
5172;DHT22;2605;49.770;9.868;2022-09-23T17:36:44;15.00;99.90
5172;DHT22;2605;49.770;9.868;2022-09-23T17:39:09;14.80;99.90
5172;DHT22;2605;49.770;9.868;2022-09-23T17:41:35;14.70;99.90
5172;DHT22;2605;49.770;9.868;2022-09-23T17:44:02;14.60;99.90
5172;DHT22;2605;49.770;9.868;2022-09-23T17:46:28;14.60;99.90
5172;DHT22;2605;49.770;9.868;2022-09-23T17:48:55;14.40;99.90
5172;DHT22;2605;49.770;9.868;2022-09-23T17:51:22;14.30;99.90
5172;DHT22;2605;49.770;9.868;2022-09-23T17:53:48;14.10;99.90
5172;DHT22;2605;49.770;9.868;2022-09-23T17:56:16;14.00;99.90
5172;DHT22;2605;49.770;9.868;2022-09-23T17:58:43;14.00;99.90
5172;DHT22;2605;49.770;9.868;2022-09-23T18:01:12;13.90;99.90
5172;DHT22;2605;49.770;9.868;2022-09-23T18:03:38;13.90;99.90
5172;DHT22;2605;49.770;9.868;2022-09-23T18:06:13;13.90;99.90
5172;DHT22;2605;49.770;9.868;2022-09-23T18:08:40;13.90;99.90
5172;DHT22;2605;49.770;9.868;2022-09-23T18:11:26;13.90;99.90
5172;DHT22;2605;49.770;9.868;2022-09-23T18:16:20;13.70;99.90
5172;DHT22;2605;49.770;9.868;2022-09-23T18:18:50;13.60;99.90
5172;DHT22;2605;49.770;9.868;2022-09-23T18:21:15;13.50;99.90
5172;DHT22;2605;49.770;9.868;2022-09-23T18:23:41;13.50;99.90
5172;DHT22;2605;49.770;9.868;2022-09-23T18:26:17;13.50;99.90
5172;DHT22;2605;49.770;9.868;2022-09-23T18:28:43;13.40;99.90
5172;DHT22;2605;49.770;9.868;2022-09-23T18:31:10;13.40;99.90
5172;DHT22;2605;49.770;9.868;2022-09-23T18:33:36;13.30;99.90
5172;DHT22;2605;49.770;9.868;2022-09-23T18:36:02;13.30;99.90
5172;DHT22;2605;49.770;9.868;2022-09-23T18:38:28;13.20;99.90
5172;DHT22;2605;49.770;9.868;2022-09-23T18:40:55;13.20;99.90